createdAt,value
2018-03-15T00:02:03.669Z,21.93
2018-03-15T00:04:37.310Z,16.47
2018-03-15T00:07:10.990Z,21.30
2018-03-15T00:09:44.550Z,18.63
2018-03-15T00:12:18.306Z,20.77
2018-03-15T00:14:51.918Z,24.33
2018-03-15T00:17:25.458Z,21.57
2018-03-15T00:19:59.082Z,22.03
2018-03-15T00:22:32.671Z,20.83
2018-03-15T00:25:06.254Z,20.70
2018-03-15T00:27:40.027Z,18.23
2018-03-15T00:30:13.835Z,20.97
2018-03-15T00:32:47.483Z,22.00
2018-03-15T00:35:21.042Z,21.30
2018-03-15T00:37:54.651Z,20.60
2018-03-15T00:40:28.278Z,20.67
2018-03-15T00:43:01.855Z,22.17
2018-03-15T00:45:35.699Z,22.27
2018-03-15T00:48:09.190Z,22.23
2018-03-15T00:50:42.776Z,20.80
2018-03-15T00:53:16.483Z,20.47
2018-03-15T00:55:50.263Z,22.47
2018-03-15T00:58:23.854Z,20.83
2018-03-15T01:00:57.627Z,24.87
2018-03-15T01:03:31.318Z,22.57
2018-03-15T01:06:05.009Z,22.57
2018-03-15T01:08:38.777Z,23.90
2018-03-15T01:11:12.362Z,21.80
2018-03-15T01:13:46.015Z,21.00
2018-03-15T01:16:19.664Z,20.20
2018-03-15T01:18:53.231Z,23.23
2018-03-15T01:21:26.823Z,25.10
2018-03-15T01:24:00.511Z,20.30
2018-03-15T01:26:34.400Z,19.63
2018-03-15T01:29:07.970Z,23.53
2018-03-15T01:31:41.527Z,22.93
2018-03-15T01:34:15.186Z,21.23
2018-03-15T01:36:48.794Z,18.67
2018-03-15T01:39:22.550Z,20.93
2018-03-15T01:41:56.254Z,20.57
2018-03-15T01:44:30.011Z,22.63
2018-03-15T01:47:03.786Z,28.43
2018-03-15T01:49:37.427Z,22.37
2018-03-15T01:52:10.963Z,19.30
2018-03-15T01:54:44.644Z,22.43
2018-03-15T01:57:18.423Z,20.03
2018-03-15T01:59:52.021Z,19.70
2018-03-15T02:02:25.813Z,15.70
2018-03-15T02:04:59.475Z,21.93
2018-03-15T02:07:33.239Z,19.57
2018-03-15T02:10:07.074Z,17.97
2018-03-15T02:12:40.841Z,21.20
2018-03-15T02:15:14.523Z,21.63
2018-03-15T02:17:48.066Z,22.17
2018-03-15T02:20:21.715Z,25.00
2018-03-15T02:22:55.398Z,18.67
2018-03-15T02:25:28.991Z,22.47
2018-03-15T02:28:02.558Z,19.90
2018-03-15T02:30:36.416Z,19.53
2018-03-15T02:33:10.145Z,18.70
2018-03-15T02:35:43.865Z,20.50
2018-03-15T02:38:17.631Z,20.90
2018-03-15T02:40:51.346Z,20.30
2018-03-15T02:43:25.004Z,21.97
2018-03-15T02:45:58.719Z,18.23
2018-03-15T02:48:32.549Z,18.63
2018-03-15T02:51:06.330Z,20.87
2018-03-15T02:53:40.008Z,18.40
2018-03-15T02:56:13.588Z,19.73
2018-03-15T02:58:47.260Z,18.30
2018-03-15T03:01:20.869Z,18.67
2018-03-15T03:03:54.595Z,18.87
2018-03-15T03:06:28.277Z,19.97
2018-03-15T03:09:01.908Z,13.50
2018-03-15T03:11:35.529Z,21.23
2018-03-15T03:14:09.165Z,16.83
2018-03-15T03:16:42.815Z,19.03
2018-03-15T03:19:16.605Z,18.63
2018-03-15T03:21:50.326Z,19.37
2018-03-15T03:24:23.975Z,18.27
2018-03-15T03:26:57.544Z,17.23
2018-03-15T03:29:31.096Z,19.27
2018-03-15T03:32:04.692Z,18.77
2018-03-15T03:34:38.261Z,16.00
2018-03-15T03:37:11.845Z,16.40
2018-03-15T03:39:45.464Z,21.57
2018-03-15T03:42:19.003Z,19.10
2018-03-15T03:44:52.974Z,16.57
2018-03-15T03:47:27.013Z,17.17
2018-03-15T03:50:00.622Z,18.57
2018-03-15T03:52:34.241Z,17.10
2018-03-15T03:55:07.915Z,17.43
2018-03-15T03:57:41.483Z,20.53
2018-03-15T04:00:15.050Z,17.50
2018-03-15T04:02:49.134Z,17.57
2018-03-15T04:05:22.776Z,18.10
2018-03-15T04:07:56.473Z,16.73
2018-03-15T04:10:30.078Z,14.20
2018-03-15T04:13:03.829Z,18.80
2018-03-15T04:15:37.441Z,19.93
2018-03-15T04:18:11.082Z,16.77
2018-03-15T04:20:44.753Z,20.27
2018-03-15T04:23:18.425Z,18.40
2018-03-15T04:25:52.228Z,21.10
2018-03-15T04:28:25.753Z,18.10
2018-03-15T04:30:59.350Z,17.37
2018-03-15T04:33:32.953Z,16.03
2018-03-15T04:36:06.543Z,16.03
2018-03-15T04:38:40.125Z,17.53
2018-03-15T04:41:13.876Z,14.87
2018-03-15T04:43:47.558Z,18.53
2018-03-15T04:46:21.146Z,17.40
2018-03-15T04:48:54.829Z,16.90
2018-03-15T04:51:28.445Z,16.83
2018-03-15T04:54:02.109Z,19.03
2018-03-15T04:56:35.852Z,19.73
2018-03-15T04:59:09.452Z,16.67
2018-03-15T05:01:43.050Z,16.20
2018-03-15T05:04:16.709Z,16.70
2018-03-15T05:06:50.435Z,18.17
2018-03-15T05:09:24.013Z,11.77
2018-03-15T05:11:57.526Z,16.57
2018-03-15T05:14:31.254Z,17.83
2018-03-15T05:17:04.795Z,15.73
2018-03-15T05:19:38.426Z,15.20
2018-03-15T05:22:12.017Z,14.60
2018-03-15T05:24:45.660Z,16.33
2018-03-15T05:27:19.578Z,16.70
2018-03-15T05:29:53.170Z,17.47
2018-03-15T05:32:26.765Z,15.53
2018-03-15T05:35:00.462Z,16.70
2018-03-15T05:37:34.110Z,17.50
2018-03-15T05:40:07.751Z,17.80
2018-03-15T05:42:41.282Z,15.33
2018-03-15T05:45:14.816Z,14.87
2018-03-15T05:47:48.649Z,17.33
2018-03-15T05:50:22.294Z,17.13
2018-03-15T05:52:55.898Z,14.93
2018-03-15T05:55:29.496Z,14.30
2018-03-15T05:58:03.009Z,16.07
2018-03-15T06:00:36.680Z,15.63
2018-03-15T06:03:10.236Z,17.90
2018-03-15T06:05:44.018Z,15.13
2018-03-15T06:08:17.630Z,15.23
2018-03-15T06:10:51.409Z,14.00
2018-03-15T06:13:25.016Z,15.07
2018-03-15T06:15:58.698Z,15.67
2018-03-15T06:18:32.283Z,13.87
2018-03-15T06:21:05.882Z,13.47
2018-03-15T06:23:39.474Z,13.53
2018-03-15T06:26:13.022Z,16.33
2018-03-15T06:28:46.584Z,15.00
2018-03-15T06:31:20.204Z,16.43
2018-03-15T06:33:53.818Z,16.03
2018-03-15T06:36:27.533Z,13.83
2018-03-15T06:39:01.191Z,17.40
2018-03-15T06:41:34.707Z,14.50
2018-03-15T06:44:08.365Z,19.40
2018-03-15T06:46:41.998Z,14.43
2018-03-15T06:49:15.628Z,15.50
2018-03-15T06:51:49.078Z,9.80
2018-03-15T06:54:22.594Z,13.47
2018-03-15T06:56:56.175Z,13.20
2018-03-15T06:59:29.826Z,16.43
2018-03-15T07:02:03.391Z,13.63
2018-03-15T07:04:37.056Z,15.27
2018-03-15T07:07:10.738Z,16.23
2018-03-15T07:09:44.305Z,15.40
2018-03-15T07:12:17.984Z,13.27
2018-03-15T07:14:51.614Z,17.47
2018-03-15T07:17:25.334Z,9.97
2018-03-15T07:19:58.835Z,11.80
2018-03-15T07:22:32.622Z,12.73
2018-03-15T07:25:06.269Z,11.33
2018-03-15T07:27:39.789Z,10.83
2018-03-15T07:30:13.454Z,14.07
2018-03-15T07:32:47.014Z,14.10
2018-03-15T07:35:20.649Z,14.30
2018-03-15T07:37:54.209Z,12.20
2018-03-15T07:40:27.914Z,12.77
2018-03-15T07:43:01.448Z,13.53
2018-03-15T07:45:35.073Z,11.93
2018-03-15T07:48:08.630Z,12.60
2018-03-15T07:50:42.157Z,14.43
2018-03-15T07:53:16.084Z,7.63
2018-03-15T07:55:49.623Z,12.70
2018-03-15T07:58:23.440Z,10.83
2018-03-15T08:00:57.116Z,8.57
2018-03-15T08:03:30.704Z,10.60
2018-03-15T08:06:04.471Z,10.03
2018-03-15T08:08:38.110Z,11.23
2018-03-15T08:11:11.633Z,11.57
2018-03-15T08:13:45.232Z,10.37
2018-03-15T08:16:18.855Z,10.73
2018-03-15T08:18:52.488Z,9.87
2018-03-15T08:21:26.113Z,11.67
2018-03-15T08:23:59.670Z,15.63
2018-03-15T08:26:33.223Z,10.37
2018-03-15T08:29:06.846Z,9.33
2018-03-15T08:31:40.410Z,10.90
2018-03-15T08:34:14.068Z,10.57
2018-03-15T08:36:47.601Z,12.83
2018-03-15T08:39:21.229Z,12.53
2018-03-15T08:41:54.958Z,12.07
2018-03-15T08:44:28.552Z,10.03
2018-03-15T08:47:02.373Z,12.80
2018-03-15T08:49:35.914Z,10.83
2018-03-15T08:52:09.438Z,10.63
2018-03-15T08:54:43.080Z,11.13
2018-03-15T08:57:16.714Z,9.97
2018-03-15T08:59:50.246Z,11.63
2018-03-15T09:02:24.042Z,10.47
2018-03-15T09:04:57.611Z,11.43
2018-03-15T09:07:31.270Z,10.10
2018-03-15T09:10:05.054Z,9.50
2018-03-15T09:12:38.630Z,9.23
2018-03-15T09:15:12.772Z,8.50
2018-03-15T09:17:46.257Z,12.33
2018-03-15T09:20:19.954Z,8.77
2018-03-15T09:22:53.418Z,10.23
2018-03-15T09:25:27.296Z,8.67
2018-03-15T09:28:00.864Z,10.10
2018-03-15T09:30:34.735Z,9.53
2018-03-15T09:33:08.356Z,9.43
2018-03-15T09:35:41.981Z,9.13
2018-03-15T09:38:15.615Z,11.53
2018-03-15T09:40:49.365Z,10.90
2018-03-15T09:43:23.057Z,9.37
2018-03-15T09:45:56.869Z,9.23
2018-03-15T09:48:30.326Z,8.37
2018-03-15T09:51:04.138Z,11.50
2018-03-15T09:53:37.713Z,10.23
2018-03-15T09:56:11.480Z,9.33
2018-03-15T09:58:45.265Z,9.17
2018-03-15T10:01:19.119Z,9.40
2018-03-15T10:03:52.972Z,10.10
2018-03-15T10:06:26.622Z,8.87
2018-03-15T10:09:00.238Z,10.80
2018-03-15T10:11:33.790Z,9.77
2018-03-15T10:14:07.513Z,8.20
2018-03-15T10:16:41.192Z,9.47
2018-03-15T10:19:14.865Z,7.27
2018-03-15T10:21:48.727Z,8.07
2018-03-15T10:24:22.415Z,9.03
2018-03-15T10:26:56.200Z,8.07
2018-03-15T10:29:29.873Z,7.93
2018-03-15T10:32:03.665Z,7.70
2018-03-15T10:34:37.367Z,8.17
2018-03-15T10:37:11.179Z,8.57
2018-03-15T10:39:44.832Z,7.77
2018-03-15T10:42:18.356Z,7.23
2018-03-15T10:44:51.937Z,8.30
2018-03-15T10:47:25.630Z,8.27
2018-03-15T10:49:59.361Z,7.37
2018-03-15T10:52:33.146Z,9.43
2018-03-15T10:55:06.674Z,8.97
2018-03-15T10:57:40.226Z,8.70
2018-03-15T11:00:13.981Z,10.23
2018-03-15T11:02:48.220Z,8.97
2018-03-15T11:05:27.547Z,6.97
2018-03-15T11:08:07.005Z,7.20
2018-03-15T11:10:40.681Z,8.43
2018-03-15T11:13:14.338Z,8.33
2018-03-15T11:15:47.922Z,8.67
2018-03-15T11:18:21.645Z,7.00
2018-03-15T11:20:55.390Z,5.67
2018-03-15T11:23:28.913Z,7.47
2018-03-15T11:26:02.526Z,7.67
2018-03-15T11:28:36.261Z,6.30
2018-03-15T11:31:10.019Z,8.00
2018-03-15T11:33:43.485Z,7.43
2018-03-15T11:36:17.170Z,7.33
2018-03-15T11:38:50.750Z,6.63
2018-03-15T11:41:24.361Z,7.63
2018-03-15T11:43:58.152Z,7.10
2018-03-15T11:46:31.922Z,7.47
2018-03-15T11:49:05.645Z,7.00
2018-03-15T11:51:39.238Z,8.87
2018-03-15T11:54:13.047Z,6.47
2018-03-15T11:56:46.621Z,7.40
2018-03-15T11:59:20.453Z,5.43
2018-03-15T12:01:54.105Z,6.60
2018-03-15T12:04:27.864Z,7.00
2018-03-15T12:07:01.377Z,7.23
2018-03-15T12:09:35.149Z,6.57
2018-03-15T12:12:08.871Z,5.70
2018-03-15T12:14:42.440Z,6.20
2018-03-15T12:17:16.122Z,6.57
2018-03-15T12:19:49.746Z,6.67
2018-03-15T12:22:23.297Z,6.90
2018-03-15T12:24:56.805Z,7.00
2018-03-15T12:27:30.525Z,5.73
2018-03-15T12:30:04.282Z,6.67
2018-03-15T12:32:37.894Z,7.80
2018-03-15T12:35:11.399Z,9.63
2018-03-15T12:37:44.940Z,6.17
2018-03-15T12:40:18.491Z,7.37
2018-03-15T12:42:52.252Z,7.10
2018-03-15T12:45:26.002Z,6.00
2018-03-15T12:47:59.533Z,6.67
2018-03-15T12:50:33.189Z,6.80
2018-03-15T12:53:06.790Z,7.33
2018-03-15T12:55:40.634Z,5.93
2018-03-15T12:58:14.430Z,7.80
2018-03-15T13:00:48.091Z,5.13
2018-03-15T13:03:21.622Z,5.73
2018-03-15T13:05:55.274Z,7.80
2018-03-15T13:08:28.954Z,7.17
2018-03-15T13:11:02.613Z,6.23
2018-03-15T13:13:36.248Z,7.80
2018-03-15T13:16:09.902Z,6.87
2018-03-15T13:18:43.499Z,5.47
2018-03-15T13:21:17.280Z,5.60
2018-03-15T13:23:50.999Z,6.23
2018-03-15T13:26:24.782Z,5.30
2018-03-15T13:28:58.323Z,7.13
2018-03-15T13:31:31.854Z,6.67
2018-03-15T13:34:05.694Z,5.87
2018-03-15T13:36:39.330Z,9.03
2018-03-15T13:39:12.926Z,6.83
2018-03-15T13:41:46.478Z,9.20
2018-03-15T13:44:20.583Z,6.70
2018-03-15T13:46:54.268Z,7.70
2018-03-15T13:49:27.961Z,9.30
2018-03-15T13:52:01.730Z,7.53
2018-03-15T13:54:35.524Z,8.43
2018-03-15T13:57:09.084Z,7.47
2018-03-15T13:59:42.633Z,6.40
2018-03-15T14:02:16.198Z,7.23
2018-03-15T14:04:49.708Z,7.07
2018-03-15T14:07:23.189Z,7.10
2018-03-15T14:09:56.766Z,7.03
2018-03-15T14:12:30.368Z,5.73
2018-03-15T14:15:03.909Z,6.67
2018-03-15T14:17:37.620Z,6.67
2018-03-15T14:20:11.472Z,7.27
2018-03-15T14:22:44.970Z,7.87
2018-03-15T14:25:18.477Z,6.53
2018-03-15T14:27:52.020Z,10.63
2018-03-15T14:30:25.766Z,8.10
2018-03-15T14:32:59.570Z,9.60
2018-03-15T14:35:33.158Z,5.57
2018-03-15T14:38:06.804Z,7.17
2018-03-15T14:40:40.546Z,7.80
2018-03-15T14:43:14.178Z,6.50
2018-03-15T14:45:47.866Z,10.33
2018-03-15T14:48:21.417Z,7.83
2018-03-15T14:50:54.956Z,7.60
2018-03-15T14:53:28.500Z,5.53
2018-03-15T14:56:02.040Z,7.57
2018-03-15T14:58:35.646Z,5.93
2018-03-15T15:01:09.443Z,7.63
2018-03-15T15:03:42.994Z,6.27
2018-03-15T15:06:16.829Z,6.10
2018-03-15T15:08:50.486Z,6.53
2018-03-15T15:11:24.042Z,6.57
2018-03-15T15:13:57.901Z,7.87
2018-03-15T15:16:31.436Z,7.90
2018-03-15T15:19:05.064Z,5.73
2018-03-15T15:21:38.742Z,7.63
2018-03-15T15:24:12.451Z,6.80
2018-03-15T15:26:45.929Z,6.07
2018-03-15T15:29:19.514Z,6.13
2018-03-15T15:31:53.058Z,5.13
2018-03-15T15:34:26.765Z,6.13
2018-03-15T15:37:00.481Z,6.83
2018-03-15T15:39:34.088Z,5.63
2018-03-15T15:42:07.609Z,6.80
2018-03-15T15:44:41.231Z,6.00
2018-03-15T15:47:14.918Z,6.57
2018-03-15T15:49:48.460Z,6.43
2018-03-15T15:52:22.103Z,8.13
2018-03-15T15:54:55.921Z,6.93
2018-03-15T15:57:29.446Z,8.50
2018-03-15T16:00:03.147Z,6.60
2018-03-15T16:02:36.893Z,5.87
2018-03-15T16:05:10.398Z,6.07
2018-03-15T16:07:44.113Z,5.87
2018-03-15T16:10:17.915Z,6.83
2018-03-15T16:12:51.454Z,9.10
2018-03-15T16:15:25.206Z,7.07
2018-03-15T16:17:58.704Z,5.77
2018-03-15T16:20:32.280Z,7.27
2018-03-15T16:23:06.029Z,5.13
2018-03-15T16:25:39.791Z,7.20
2018-03-15T16:28:13.356Z,5.50
2018-03-15T16:30:46.873Z,6.50
2018-03-15T16:33:20.580Z,4.87
2018-03-15T16:35:54.226Z,4.87
2018-03-15T16:38:27.723Z,7.07
2018-03-15T16:41:01.477Z,7.03
2018-03-15T16:43:35.044Z,6.10
2018-03-15T16:46:08.812Z,4.17
2018-03-15T16:48:42.286Z,4.97
2018-03-15T16:51:15.860Z,5.40
2018-03-15T16:53:49.428Z,4.20
2018-03-15T16:56:22.934Z,4.97
2018-03-15T16:58:56.512Z,6.20
2018-03-15T17:01:30.256Z,6.93
2018-03-15T17:04:03.792Z,4.40
2018-03-15T17:06:37.514Z,5.43
2018-03-15T17:09:11.236Z,5.43
2018-03-15T17:11:45.305Z,6.73
2018-03-15T17:14:18.905Z,6.60
2018-03-15T17:16:52.514Z,6.67
2018-03-15T17:19:26.146Z,5.27
2018-03-15T17:21:59.710Z,6.03
2018-03-15T17:24:33.530Z,5.77
2018-03-15T17:33:17.993Z,7.00
2018-03-15T17:35:51.651Z,7.57
2018-03-15T17:38:25.449Z,5.77
2018-03-15T17:40:59.100Z,4.93
2018-03-15T17:43:32.618Z,4.83
2018-03-15T17:46:06.270Z,6.17
2018-03-15T17:48:39.935Z,7.93
2018-03-15T17:51:13.590Z,5.97
2018-03-15T17:53:47.169Z,5.90
2018-03-15T17:56:20.746Z,5.73
2018-03-15T17:58:54.357Z,7.80
2018-03-15T18:01:28.014Z,8.53
2018-03-15T18:04:01.639Z,7.67
2018-03-15T18:06:35.429Z,10.33
2018-03-15T18:09:09.005Z,6.73
2018-03-15T18:11:42.646Z,19.80
2018-03-15T18:14:16.250Z,7.23
2018-03-15T18:16:49.806Z,7.77
2018-03-15T18:19:23.409Z,12.80
2018-03-15T18:21:56.965Z,6.73
2018-03-15T18:24:30.518Z,6.50
2018-03-15T18:27:04.282Z,6.83
2018-03-15T18:29:38.082Z,9.37
2018-03-15T18:32:12.485Z,8.77
2018-03-15T18:34:46.024Z,7.60
2018-03-15T18:37:20.677Z,6.30
2018-03-15T18:39:54.230Z,7.60
2018-03-15T18:42:27.825Z,8.50
2018-03-15T18:45:01.410Z,8.40
2018-03-15T18:47:35.011Z,7.50
2018-03-15T18:50:08.498Z,6.57
2018-03-15T18:52:42.063Z,7.60
2018-03-15T18:55:15.594Z,8.60
2018-03-15T18:57:49.181Z,9.60
2018-03-15T19:00:22.960Z,9.83
2018-03-15T19:02:56.602Z,30.00
2018-03-15T19:05:30.188Z,8.23
2018-03-15T19:08:03.914Z,8.33
2018-03-15T19:10:37.506Z,8.10
2018-03-15T19:13:11.074Z,13.70
2018-03-15T19:15:44.862Z,22.23
2018-03-15T19:18:18.489Z,14.77
2018-03-15T19:20:52.092Z,29.23
2018-03-15T19:23:25.842Z,8.67
2018-03-15T19:25:59.382Z,9.43
2018-03-15T19:28:32.988Z,8.73
2018-03-15T19:31:06.894Z,10.90
2018-03-15T19:33:40.499Z,9.63
2018-03-15T19:36:14.265Z,11.87
2018-03-15T19:38:47.914Z,11.00
2018-03-15T19:41:21.669Z,11.40
2018-03-15T19:43:55.182Z,11.63
2018-03-15T19:46:28.868Z,11.33
2018-03-15T19:49:02.542Z,12.20
2018-03-15T19:51:36.119Z,15.97
2018-03-15T19:54:09.917Z,11.90
2018-03-15T19:56:43.643Z,13.47
2018-03-15T19:59:17.202Z,12.97
2018-03-15T20:01:50.918Z,12.90
2018-03-15T20:04:24.524Z,17.17
2018-03-15T20:06:58.087Z,15.17
2018-03-15T20:09:31.802Z,14.83
2018-03-15T20:12:05.646Z,15.70
2018-03-15T20:14:39.302Z,13.00
2018-03-15T20:17:26.832Z,14.93
2018-03-15T20:20:00.518Z,14.43
2018-03-15T20:22:39.786Z,16.63
2018-03-15T20:25:13.454Z,16.50
2018-03-15T20:27:53.017Z,17.93
2018-03-15T20:30:26.688Z,15.17
2018-03-15T20:33:06.065Z,17.27
2018-03-15T20:35:39.778Z,14.83
2018-03-15T20:38:13.361Z,15.83
2018-03-15T20:40:52.550Z,16.23
2018-03-15T20:43:26.231Z,16.60
2018-03-15T20:46:05.720Z,16.37
2018-03-15T20:48:45.283Z,17.57
2018-03-15T20:51:18.929Z,15.30
2018-03-15T20:53:52.622Z,17.07
2018-03-15T20:56:26.382Z,15.20
2018-03-15T20:58:59.924Z,15.50
2018-03-15T21:01:33.504Z,16.93
2018-03-15T21:04:07.105Z,17.43
2018-03-15T21:06:40.883Z,23.73
2018-03-15T21:09:14.434Z,18.17
2018-03-15T21:11:48.145Z,23.10
2018-03-15T21:14:21.954Z,21.57
2018-03-15T21:16:55.610Z,20.33
2018-03-15T21:19:29.189Z,18.77
2018-03-15T21:22:02.900Z,22.47
2018-03-15T21:24:36.545Z,18.90
2018-03-15T21:27:10.413Z,19.77
2018-03-15T21:29:43.914Z,21.20
2018-03-15T21:32:17.660Z,21.97
2018-03-15T21:34:51.184Z,21.03
2018-03-15T21:37:24.852Z,21.60
2018-03-15T21:39:58.437Z,20.73
2018-03-15T21:42:32.023Z,19.13
2018-03-15T21:45:05.582Z,21.07
2018-03-15T21:47:39.205Z,21.63
2018-03-15T21:50:12.985Z,24.07
2018-03-15T21:52:46.579Z,22.90
2018-03-15T21:55:20.192Z,21.53
2018-03-15T21:57:53.948Z,23.23
2018-03-15T22:00:27.758Z,21.60
2018-03-15T22:03:01.801Z,24.03
2018-03-15T22:05:35.412Z,22.47
2018-03-15T22:08:09.176Z,22.73
2018-03-15T22:10:42.998Z,21.37
2018-03-15T22:13:16.584Z,21.23
2018-03-15T22:15:50.349Z,23.67
2018-03-15T22:18:23.988Z,22.77
2018-03-15T22:20:57.668Z,21.27
2018-03-15T22:23:31.262Z,22.47
2018-03-15T22:26:04.887Z,20.30
2018-03-15T22:28:38.992Z,25.57
2018-03-15T22:31:12.539Z,21.60
2018-03-15T22:33:46.253Z,20.77
2018-03-15T22:36:20.049Z,22.80
2018-03-15T22:38:53.653Z,22.47
2018-03-15T22:41:27.195Z,25.80
2018-03-15T22:44:00.827Z,24.53
2018-03-15T22:46:34.444Z,25.50
2018-03-15T22:49:08.066Z,24.03
2018-03-15T22:51:41.692Z,24.27
2018-03-15T22:54:15.548Z,23.60
2018-03-15T22:56:49.239Z,21.80
2018-03-15T22:59:23.032Z,22.83
2018-03-15T23:01:56.803Z,21.53
2018-03-15T23:04:30.412Z,22.30
2018-03-15T23:07:04.225Z,23.23
2018-03-15T23:09:37.854Z,27.87
2018-03-15T23:12:11.550Z,24.10
2018-03-15T23:14:45.179Z,25.93
2018-03-15T23:17:18.765Z,26.03
2018-03-15T23:19:52.447Z,26.00
2018-03-15T23:22:25.958Z,24.70
2018-03-15T23:24:59.774Z,23.83
2018-03-15T23:27:33.468Z,22.73
2018-03-15T23:30:07.000Z,28.50
2018-03-15T23:32:40.703Z,25.17
2018-03-15T23:35:14.281Z,25.33
2018-03-15T23:37:47.970Z,27.57
2018-03-15T23:40:21.993Z,25.97
2018-03-15T23:42:56.155Z,27.00
2018-03-15T23:45:29.864Z,28.27
2018-03-15T23:48:03.452Z,27.87
2018-03-15T23:50:37.323Z,27.30
2018-03-15T23:53:11.080Z,27.53
2018-03-15T23:55:44.662Z,26.17
2018-03-15T23:58:18.538Z,25.47
